PST,Max TemperatureF,Mean TemperatureF,Min TemperatureF,Max Dew PointF,MeanDew PointF,Min DewpointF,Max Humidity, Mean Humidity, Min Humidity, Max Sea Level PressureIn, Mean Sea Level PressureIn, Min Sea Level PressureIn, Max VisibilityMiles, Mean VisibilityMiles, Min VisibilityMiles, Max Wind SpeedMPH, Mean Wind SpeedMPH, Max Gust SpeedMPH,PrecipitationIn, CloudCover, Events, WindDirDegrees
2013-2-1,53,45,37,45,41,34,93,84,67,30.39,30.35,30.30,10,9,2,9,2,,0.00,4,,337
2013-2-2,53,43,33,41,36,30,93,82,58,30.35,30.30,30.25,10,9,2,6,1,,0.00,3,,326
2013-2-3,44,40,37,39,37,36,93,84,81,30.34,30.29,30.25,10,9,6,12,4,,0.00,8,,136
2013-2-4,51,46,42,41,39,39,87,77,62,30.25,30.09,29.94,10,10,8,8,4,,0.00,6,,147
2013-2-5,53,48,44,45,40,39,93,79,62,30.03,29.94,29.90,10,10,6,15,8,23,0.07,7,,154
2013-2-6,48,45,42,39,39,37,87,75,66,30.09,29.99,29.82,10,10,9,15,9,24,0.10,8,,147
2013-2-7,48,40,32,37,34,28,87,74,50,30.19,30.03,29.89,10,10,10,12,6,,0.00,4,,158
2013-2-8,48,38,28,36,31,25,93,76,53,30.31,30.26,30.19,10,9,2,12,2,17,0.00,6,,329
2013-2-9,48,40,33,39,35,28,87,80,66,30.31,30.29,30.26,10,10,10,6,1,,0.00,7,,280
2013-2-10,46,40,33,37,35,30,93,79,62,30.37,30.34,30.32,10,9,0,8,1,,0.00,8,,318
2013-2-11,46,44,41,41,37,34,93,81,70,30.39,30.37,30.34,10,9,2,10,2,,0.02,8,,143
2013-2-12,50,46,42,46,43,39,93,89,82,30.47,30.42,30.39,10,8,2,9,5,,0.03,8,,142
2013-2-13,51,44,35,45,39,32,93,79,58,30.53,30.47,30.41,10,10,4,9,4,,0.01,7,,244
2013-2-14,46,40,33,43,38,28,93,88,81,30.58,30.55,30.53,10,9,3,8,2,,0.00,7,,137
2013-2-15,59,49,39,45,41,36,93,79,59,30.53,30.34,30.20,10,10,5,10,3,,0.00,2,,339
2013-2-16,51,44,37,43,38,34,93,80,58,30.29,30.25,30.21,10,9,2,14,3,23,0.01,6,,229
2013-2-17,48,40,33,36,35,30,93,79,62,30.30,30.24,30.12,10,10,8,8,2,,0.00,7,,151
2013-2-18,46,40,35,36,34,30,93,77,53,30.11,29.95,29.75,10,10,7,13,4,20,0.09,7,,136
2013-2-19,53,42,32,37,35,28,93,75,47,30.02,29.82,29.72,10,10,10,10,4,,0.03,4,,333
2013-2-20,46,38,30,39,34,27,93,82,66,30.09,30.05,30.01,10,10,3,13,4,,0.09,7,,147
2013-2-21,44,42,39,39,37,36,87,83,76,30.16,30.13,30.07,10,10,3,13,8,17,0.11,8,,151
2013-2-22,48,42,37,43,37,34,87,81,70,30.15,29.99,29.85,10,9,4,17,9,28,0.84,7,,157
2013-2-23,46,42,37,37,35,32,93,80,61,30.44,30.27,30.05,10,10,3,10,5,20,0.34,7,,152
2013-2-24,48,42,37,36,34,30,87,72,50,30.44,30.30,30.01,10,10,10,14,7,24,0.00,8,,147
2013-2-25,48,42,37,37,35,34,93,77,58,30.38,30.21,29.99,10,10,5,16,7,24,0.25,7,,193
2013-2-26,48,42,35,37,34,32,93,75,57,30.40,30.32,30.24,10,10,7,15,7,20,0.00,6,,148
2013-2-27,51,46,42,43,38,36,87,72,62,30.31,30.28,30.24,10,10,5,15,7,23,0.01,8,,144
2013-2-28,55,53,51,50,49,46,94,84,77,30.41,30.35,30.28,10,10,3,12,8,,0.07,8,,154